sensor_id;sensor_type;location;lat;lon;timestamp;pressure;altitude;pressure_sealevel;temperature;humidity
72395;BME280;60384;48.152;11.614;2023-05-21T00:02:29;95289.97;;;17.23;63.70
72395;BME280;60384;48.152;11.614;2023-05-21T00:05:30;95286.06;;;17.20;63.87
72395;BME280;60384;48.152;11.614;2023-05-21T00:08:32;95285.31;;;17.20;63.89
72395;BME280;60384;48.152;11.614;2023-05-21T00:11:34;95285.25;;;17.16;63.77
72395;BME280;60384;48.152;11.614;2023-05-21T00:14:37;95284.44;;;17.12;63.70
72395;BME280;60384;48.152;11.614;2023-05-21T00:17:38;95287.50;;;17.11;63.95
72395;BME280;60384;48.152;11.614;2023-05-21T00:20:41;95283.63;;;17.08;63.82
72395;BME280;60384;48.152;11.614;2023-05-21T00:23:42;95276.25;;;17.05;64.06
72395;BME280;60384;48.152;11.614;2023-05-21T00:26:44;95275.81;;;17.03;63.90
72395;BME280;60384;48.152;11.614;2023-05-21T00:29:47;95263.81;;;16.97;64.08
72395;BME280;60384;48.152;11.614;2023-05-21T00:32:49;95267.22;;;16.90;64.42
72395;BME280;60384;48.152;11.614;2023-05-21T00:35:51;95262.88;;;16.86;64.18
72395;BME280;60384;48.152;11.614;2023-05-21T00:38:53;95273.66;;;16.82;64.15
72395;BME280;60384;48.152;11.614;2023-05-21T00:41:54;95272.47;;;16.80;63.96
72395;BME280;60384;48.152;11.614;2023-05-21T00:44:58;95270.84;;;16.75;64.05
72395;BME280;60384;48.152;11.614;2023-05-21T00:48:02;95269.66;;;16.73;64.17
72395;BME280;60384;48.152;11.614;2023-05-21T00:51:05;95253.41;;;16.69;64.21
72395;BME280;60384;48.152;11.614;2023-05-21T00:54:07;95261.91;;;16.68;64.22
72395;BME280;60384;48.152;11.614;2023-05-21T00:57:09;95265.72;;;16.67;63.99
72395;BME280;60384;48.152;11.614;2023-05-21T01:00:13;95264.53;;;16.64;64.14
72395;BME280;60384;48.152;11.614;2023-05-21T01:03:15;95256.03;;;16.62;64.15
72395;BME280;60384;48.152;11.614;2023-05-21T01:06:18;95248.31;;;16.61;64.09
72395;BME280;60384;48.152;11.614;2023-05-21T01:09:20;95261.00;;;16.60;64.05
72395;BME280;60384;48.152;11.614;2023-05-21T01:12:21;95262.16;;;16.59;64.09
72395;BME280;60384;48.152;11.614;2023-05-21T01:15:25;95254.00;;;16.56;64.15
72395;BME280;60384;48.152;11.614;2023-05-21T01:18:27;95256.69;;;16.56;63.98
72395;BME280;60384;48.152;11.614;2023-05-21T01:21:29;95260.09;;;16.52;64.18
72395;BME280;60384;48.152;11.614;2023-05-21T01:24:32;95257.78;;;16.51;63.96
72395;BME280;60384;48.152;11.614;2023-05-21T01:27:34;95251.53;;;16.47;64.09
72395;BME280;60384;48.152;11.614;2023-05-21T01:30:36;95251.53;;;16.47;63.96
72395;BME280;60384;48.152;11.614;2023-05-21T01:33:39;95252.28;;;16.44;64.18
72395;BME280;60384;48.152;11.614;2023-05-21T01:36:45;95250.31;;;16.41;64.19
72395;BME280;60384;48.152;11.614;2023-05-21T01:39:52;95252.59;;;16.39;63.95
72395;BME280;60384;48.152;11.614;2023-05-21T01:42:56;95244.50;;;16.39;64.19
72395;BME280;60384;48.152;11.614;2023-05-21T01:45:58;95246.44;;;16.38;64.11
72395;BME280;60384;48.152;11.614;2023-05-21T01:49:01;95247.13;;;16.35;63.89
72395;BME280;60384;48.152;11.614;2023-05-21T01:52:03;95237.88;;;16.33;63.89
72395;BME280;60384;48.152;11.614;2023-05-21T01:55:06;95240.50;;;16.29;64.08
72395;BME280;60384;48.152;11.614;2023-05-21T01:58:08;95232.38;;;16.26;64.07
72395;BME280;60384;48.152;11.614;2023-05-21T02:01:10;95234.66;;;16.24;63.95
72395;BME280;60384;48.152;11.614;2023-05-21T02:04:12;95248.06;;;16.20;64.24
72395;BME280;60384;48.152;11.614;2023-05-21T02:07:13;95240.34;;;16.19;64.34
72395;BME280;60384;48.152;11.614;2023-05-21T02:10:16;95235.34;;;16.17;64.24
72395;BME280;60384;48.152;11.614;2023-05-21T02:13:18;95237.63;;;16.15;64.13
72395;BME280;60384;48.152;11.614;2023-05-21T02:16:21;95247.97;;;16.13;64.04
72395;BME280;60384;48.152;11.614;2023-05-21T02:19:23;95247.56;;;16.11;64.47
72395;BME280;60384;48.152;11.614;2023-05-21T02:22:25;95248.69;;;16.10;64.15
72395;BME280;60384;48.152;11.614;2023-05-21T02:25:28;95239.06;;;16.09;63.93
72395;BME280;60384;48.152;11.614;2023-05-21T02:28:29;95235.94;;;16.07;64.02
72395;BME280;60384;48.152;11.614;2023-05-21T02:31:32;95237.38;;;16.01;64.14
72395;BME280;60384;48.152;11.614;2023-05-21T02:34:33;95235.78;;;15.96;63.98
72395;BME280;60384;48.152;11.614;2023-05-21T02:37:36;95231.91;;;15.94;64.19
72395;BME280;60384;48.152;11.614;2023-05-21T02:40:41;95240.75;;;15.94;64.28
72395;BME280;60384;48.152;11.614;2023-05-21T02:43:42;95239.97;;;15.94;63.99
72395;BME280;60384;48.152;11.614;2023-05-21T02:46:44;95236.84;;;15.92;63.93
72395;BME280;60384;48.152;11.614;2023-05-21T02:49:48;95241.41;;;15.88;64.13
72395;BME280;60384;48.152;11.614;2023-05-21T02:52:50;95235.19;;;15.84;64.42
72395;BME280;60384;48.152;11.614;2023-05-21T02:55:53;95235.47;;;15.79;64.34
72395;BME280;60384;48.152;11.614;2023-05-21T02:58:55;95236.22;;;15.76;64.04
72395;BME280;60384;48.152;11.614;2023-05-21T03:01:57;95243.88;;;15.74;64.15
72395;BME280;60384;48.152;11.614;2023-05-21T03:04:59;95237.69;;;15.73;64.30
72395;BME280;60384;48.152;11.614;2023-05-21T03:08:00;95239.63;;;15.73;64.02
72395;BME280;60384;48.152;11.614;2023-05-21T03:11:04;95240.78;;;15.72;64.19
72395;BME280;60384;48.152;11.614;2023-05-21T03:14:06;95244.59;;;15.70;64.43
72395;BME280;60384;48.152;11.614;2023-05-21T03:17:09;95235.25;;;15.64;64.40
72395;BME280;60384;48.152;11.614;2023-05-21T03:20:13;95228.25;;;15.60;64.30
72395;BME280;60384;48.152;11.614;2023-05-21T03:23:16;95228.19;;;15.56;64.17
72395;BME280;60384;48.152;11.614;2023-05-21T03:26:19;95228.13;;;15.53;64.12
72395;BME280;60384;48.152;11.614;2023-05-21T03:29:21;95224.19;;;15.50;64.39
72395;BME280;60384;48.152;11.614;2023-05-21T03:32:24;95233.41;;;15.49;64.16
72395;BME280;60384;48.152;11.614;2023-05-21T03:35:27;95235.69;;;15.47;64.28
72395;BME280;60384;48.152;11.614;2023-05-21T03:38:29;95225.63;;;15.44;64.36
72395;BME280;60384;48.152;11.614;2023-05-21T03:41:32;95224.81;;;15.40;64.16
72395;BME280;60384;48.152;11.614;2023-05-21T03:44:42;95218.59;;;15.36;64.57
72395;BME280;60384;48.152;11.614;2023-05-21T03:48:03;95215.81;;;15.32;64.61
72395;BME280;60384;48.152;11.614;2023-05-21T03:51:05;95212.72;;;15.30;64.55
72395;BME280;60384;48.152;11.614;2023-05-21T03:54:07;95231.91;;;15.29;64.28
72395;BME280;60384;48.152;11.614;2023-05-21T03:57:12;95226.53;;;15.29;64.07
72395;BME280;60384;48.152;11.614;2023-05-21T04:00:14;95222.28;;;15.28;64.39
72395;BME280;60384;48.152;11.614;2023-05-21T04:03:16;95228.09;;;15.30;64.12
72395;BME280;60384;48.152;11.614;2023-05-21T04:06:18;95230.00;;;15.29;64.18
72395;BME280;60384;48.152;11.614;2023-05-21T04:09:20;95231.13;;;15.28;64.29
72395;BME280;60384;48.152;11.614;2023-05-21T04:12:23;95222.28;;;15.28;64.28
72395;BME280;60384;48.152;11.614;2023-05-21T04:15:25;95223.81;;;15.29;63.93
72395;BME280;60384;48.152;11.614;2023-05-21T04:18:27;95225.41;;;15.30;63.89
72395;BME280;60384;48.152;11.614;2023-05-21T04:21:28;95227.31;;;15.29;63.88
72395;BME280;60384;48.152;11.614;2023-05-21T04:24:31;95227.72;;;15.32;63.91
72395;BME280;60384;48.152;11.614;2023-05-21T04:27:47;95226.94;;;15.31;64.25
72395;BME280;60384;48.152;11.614;2023-05-21T04:30:49;95231.19;;;15.32;64.05
72395;BME280;60384;48.152;11.614;2023-05-21T04:33:51;95230.78;;;15.30;63.82
72395;BME280;60384;48.152;11.614;2023-05-21T04:36:53;95233.81;;;15.28;64.26
72395;BME280;60384;48.152;11.614;2023-05-21T04:39:56;95230.00;;;15.29;64.07
72395;BME280;60384;48.152;11.614;2023-05-21T04:43:00;95238.06;;;15.29;64.09
72395;BME280;60384;48.152;11.614;2023-05-21T04:46:02;95234.66;;;15.32;64.23
72395;BME280;60384;48.152;11.614;2023-05-21T04:49:04;95248.88;;;15.33;64.29
72395;BME280;60384;48.152;11.614;2023-05-21T04:52:05;95244.38;;;15.37;64.23
72395;BME280;60384;48.152;11.614;2023-05-21T04:55:08;95249.03;;;15.40;64.02
72395;BME280;60384;48.152;11.614;2023-05-21T04:58:11;95252.19;;;15.46;63.98
72395;BME280;60384;48.152;11.614;2023-05-21T05:01:13;95249.22;;;15.51;63.86
72395;BME280;60384;48.152;11.614;2023-05-21T05:04:14;95246.69;;;15.58;63.57
72395;BME280;60384;48.152;11.614;2023-05-21T05:07:16;95248.66;;;15.61;63.85
72395;BME280;60384;48.152;11.614;2023-05-21T05:10:18;95242.56;;;15.64;63.87
72395;BME280;60384;48.152;11.614;2023-05-21T05:13:21;95244.47;;;15.63;63.85
72395;BME280;60384;48.152;11.614;2023-05-21T05:16:23;95241.44;;;15.65;63.64
72395;BME280;60384;48.152;11.614;2023-05-21T05:19:25;95244.94;;;15.69;63.43
72395;BME280;60384;48.152;11.614;2023-05-21T05:22:27;95233.81;;;15.70;63.60
72395;BME280;60384;48.152;11.614;2023-05-21T05:25:28;95247.69;;;15.73;63.82
72395;BME280;60384;48.152;11.614;2023-05-21T05:28:34;95243.16;;;15.77;63.62
72395;BME280;60384;48.152;11.614;2023-05-21T05:31:35;95240.88;;;15.79;63.65
72395;BME280;60384;48.152;11.614;2023-05-21T05:34:37;95252.50;;;15.83;63.59
72395;BME280;60384;48.152;11.614;2023-05-21T05:37:39;95252.91;;;15.85;63.83
72395;BME280;60384;48.152;11.614;2023-05-21T05:40:41;95244.91;;;15.88;63.56
72395;BME280;60384;48.152;11.614;2023-05-21T05:43:44;95236.84;;;15.92;63.58
72395;BME280;60384;48.152;11.614;2023-05-21T05:46:46;95239.25;;;15.97;63.55
72395;BME280;60384;48.152;11.614;2023-05-21T05:49:48;95237.38;;;16.01;63.28
72395;BME280;60384;48.152;11.614;2023-05-21T05:52:50;95242.06;;;16.04;63.16
72395;BME280;60384;48.152;11.614;2023-05-21T05:55:52;95244.09;;;16.10;63.49
72395;BME280;60384;48.152;11.614;2023-05-21T05:58:55;95243.78;;;16.16;63.16
72395;BME280;60384;48.152;11.614;2023-05-21T06:01:56;95249.28;;;16.23;63.16
72395;BME280;60384;48.152;11.614;2023-05-21T06:04:58;95250.88;;;16.27;63.10
72395;BME280;60384;48.152;11.614;2023-05-21T06:08:00;95250.63;;;16.36;63.03
72395;BME280;60384;48.152;11.614;2023-05-21T06:11:02;95246.47;;;16.42;63.15
72395;BME280;60384;48.152;11.614;2023-05-21T06:14:05;95255.09;;;16.51;63.22
72395;BME280;60384;48.152;11.614;2023-05-21T06:17:07;95259.09;;;16.61;62.87
72395;BME280;60384;48.152;11.614;2023-05-21T06:20:11;95253.06;;;16.71;62.82
72395;BME280;60384;48.152;11.614;2023-05-21T06:23:13;95246.25;;;16.80;62.88
72395;BME280;60384;48.152;11.614;2023-05-21T06:26:18;95243.72;;;16.91;62.50
72395;BME280;60384;48.152;11.614;2023-05-21T06:29:24;95245.75;;;17.01;62.99
72395;BME280;60384;48.152;11.614;2023-05-21T06:32:26;95245.09;;;17.11;63.04
72395;BME280;60384;48.152;11.614;2023-05-21T06:35:27;95252.53;;;17.21;62.45
72395;BME280;60384;48.152;11.614;2023-05-21T06:38:29;95252.63;;;17.32;62.40
72395;BME280;60384;48.152;11.614;2023-05-21T06:41:31;95253.91;;;17.42;62.39
72395;BME280;60384;48.152;11.614;2023-05-21T06:44:37;95249.00;;;17.51;62.39
72395;BME280;60384;48.152;11.614;2023-05-21T06:47:48;95247.19;;;17.62;62.11
72395;BME280;60384;48.152;11.614;2023-05-21T06:50:49;95250.75;;;17.69;62.64
72395;BME280;60384;48.152;11.614;2023-05-21T06:53:51;95256.97;;;17.77;62.42
72395;BME280;60384;48.152;11.614;2023-05-21T06:56:53;95255.91;;;17.85;62.52
72395;BME280;60384;48.152;11.614;2023-05-21T06:59:56;95260.19;;;17.90;62.68
72395;BME280;60384;48.152;11.614;2023-05-21T07:02:57;95266.44;;;17.97;62.42
72395;BME280;60384;48.152;11.614;2023-05-21T07:05:59;95267.25;;;18.01;62.72
72395;BME280;60384;48.152;11.614;2023-05-21T07:09:01;95267.66;;;18.03;62.53
72395;BME280;60384;48.152;11.614;2023-05-21T07:12:04;95264.19;;;18.06;62.86
